Terminal Aerodrome Forecast
Issued by NWS Cleveland, OH

Home | Current Version | Previous Version | Text Only | Print | Product List | Glossary Off
Versions: 1 2 3 4 5 6 7 8 9 10 11 12 13 14 15 16 17 18 19 20 21 22 23

000
FTUS41 KCLE 211100
TAFERI
TAF
KERI 211140Z 2112/2212 25008KT P6SM -SHSN BKN040
      TEMPO 2113/2117 3SM -SHSN BKN028
     FM212100 21008KT P6SM BKN035
     FM220300 19012KT P6SM SCT035=

USA.gov is the U.S. government's official web portal to all federal, state and local government web resources and services.